Ana Sayfa
METAR-TAF:

METAR-TAF

Havaalanları :

Niigata, Japonya

Enlem: 37-57N, Boylam: 139-07E, yükseklik: 1 m

Güncel hava durumu gözlemi

Rapor saat 07:00 UTC de 47 dakika önce yapıldı.
Rüzgar batı/güneybatıdan 15 kt
Sıcaklık 27°C
Nem 66%
Basınç 1007 hPa
Görüş mesafesi 10 km veya daha fazla
2500 ft yükseklikte az bulutlu
4000 ft yükseklikte parçalı bulutlu
parçalı çok bulutlu

METAR: RJSN 250700Z 25015KT 9999 FEW025 SCT040 BKN/// 27/20 Q1007

Saat: 16:47 (07:47 UTC)

Tahmin

Rapor saat 05:05 UTC de 2 saat ve 42 dakika önce yapıldı.
Ayın 25'si saat 06 UTC'den ayın 26'si saat 12 UTC'ye kadar geçerli Tahmin
Rüzgar batı/güneybatıdan 12 kt
Görüş mesafesi 10 km veya daha fazla
1500 ft yükseklikte az bulutlu
3000 ft yükseklikte parçalı çok bulutlu
Dönüşüyor
ayın 26'si saat 00 UTC'den ayın 26'si saat 03 UTC'ye kadar
Rüzgar kuzey/kuzeybatıdan 12 kt

TAF: RJSN 250505Z 2506/2612 24012KT 9999 FEW015 BKN030 BECMG 2600/2603 34012KT

4.000'den fazla havaalanı için hava durumu gözlemleri ve tahminleri (METAR ve TAF raporları).

Kullanılabilir istasyonlar harita üzerinde sarı ve kırmızı noktalarla gösterilir.

İstasyonun adını görmek için fareyi noktanın üzerinde gezdirin.

Sonrasında hava gözlem ve tahminlerini görmek için tıklayın.

Haritayı değiştirmek için: yaklaştırmak için siyah artı işaretli yeşil düğmeye ve uzaklaştırmak için de eksi işaretli düğmeye hızla tıklayın; bitişik haritalar için yeşil okları kullanın.


METAR-TAF: